createdAt,value
2023-04-06T00:00:55.115Z,80.75
2023-04-06T00:03:21.910Z,81.66
2023-04-06T00:05:49.458Z,81.91
2023-04-06T00:08:16.351Z,82.16
2023-04-06T00:10:43.271Z,81.85
2023-04-06T00:13:10.114Z,81.99
2023-04-06T00:15:36.941Z,82.28
2023-04-06T00:18:04.399Z,82.30
2023-04-06T00:20:31.330Z,82.61
2023-04-06T00:22:58.056Z,82.20
2023-04-06T00:25:24.906Z,82.28
2023-04-06T00:27:51.597Z,81.18
2023-04-06T00:30:18.814Z,80.38
2023-04-06T00:32:45.816Z,79.30
2023-04-06T00:35:12.584Z,79.14
2023-04-06T00:37:39.402Z,77.63
2023-04-06T00:40:06.969Z,75.86
2023-04-06T00:42:33.925Z,74.31
2023-04-06T00:45:02.317Z,73.93
2023-04-06T00:47:29.730Z,72.91
2023-04-06T00:49:57.768Z,73.95
2023-04-06T00:52:24.463Z,73.51
2023-04-06T00:54:52.450Z,73.44
2023-04-06T00:57:20.740Z,74.15
2023-04-06T00:59:54.494Z,73.27
2023-04-06T01:02:21.775Z,73.00
2023-04-06T01:04:52.616Z,73.31
2023-04-06T01:07:31.304Z,73.21
2023-04-06T01:10:28.858Z,72.62
2023-04-06T01:13:10.345Z,72.71
2023-04-06T01:15:56.112Z,73.59
2023-04-06T01:18:31.113Z,73.11
2023-04-06T01:21:16.645Z,73.27
2023-04-06T01:23:58.310Z,73.50
2023-04-06T01:26:33.610Z,75.20
2023-04-06T01:29:02.409Z,74.89
2023-04-06T01:31:30.734Z,74.86
2023-04-06T01:33:58.158Z,74.87
2023-04-06T01:36:26.483Z,74.20
2023-04-06T01:39:05.621Z,73.79
2023-04-06T01:41:36.638Z,74.73
2023-04-06T01:44:03.693Z,75.07
2023-04-06T01:46:31.451Z,74.45
2023-04-06T01:48:59.126Z,74.82
2023-04-06T01:51:44.944Z,75.02
2023-04-06T01:54:13.764Z,74.36
2023-04-06T01:56:53.570Z,74.31
2023-04-06T01:59:33.229Z,74.78
2023-04-06T02:02:04.354Z,74.56
2023-04-06T02:04:32.666Z,74.74
2023-04-06T02:07:08.794Z,74.95
2023-04-06T02:09:35.932Z,74.27
2023-04-06T02:12:04.289Z,74.85
2023-04-06T02:14:33.949Z,74.76
2023-04-06T02:17:01.175Z,74.71
2023-04-06T02:19:28.968Z,74.65
2023-04-06T02:21:55.715Z,74.82
2023-04-06T02:24:23.402Z,74.74
2023-04-06T02:26:50.381Z,74.51
2023-04-06T02:29:17.336Z,74.58
2023-04-06T02:31:44.290Z,74.89
2023-04-06T02:34:13.079Z,74.73
2023-04-06T02:36:46.416Z,75.04
2023-04-06T02:39:14.990Z,74.94
2023-04-06T02:41:41.733Z,75.65
2023-04-06T02:44:09.866Z,75.29
2023-04-06T02:46:43.108Z,75.04
2023-04-06T02:49:10.243Z,75.40
2023-04-06T02:51:37.475Z,74.68
2023-04-06T02:54:24.140Z,74.33
2023-04-06T02:56:51.060Z,74.18
2023-04-06T02:59:18.464Z,74.79
2023-04-06T03:01:55.361Z,74.71
2023-04-06T03:04:23.814Z,74.17
2023-04-06T03:06:51.746Z,74.15
2023-04-06T03:09:29.334Z,74.83
2023-04-06T03:11:56.255Z,74.48
2023-04-06T03:14:24.509Z,74.38
2023-04-06T03:16:51.425Z,74.07
2023-04-06T03:19:21.691Z,73.79
2023-04-06T03:21:49.380Z,74.13
2023-04-06T03:24:17.323Z,73.92
2023-04-06T03:26:44.062Z,73.50
2023-04-06T03:29:10.815Z,73.90
2023-04-06T03:31:37.817Z,73.85
2023-04-06T03:34:43.399Z,74.51
2023-04-06T03:37:11.017Z,74.72
2023-04-06T03:39:45.020Z,74.63
2023-04-06T03:42:17.712Z,74.31
2023-04-06T03:44:52.840Z,74.89
2023-04-06T03:47:20.060Z,74.35
2023-04-06T03:49:46.830Z,74.41
2023-04-06T03:52:15.789Z,74.58
2023-04-06T03:54:42.542Z,75.05
2023-04-06T03:57:11.141Z,74.33
2023-04-06T03:59:37.820Z,74.47
2023-04-06T04:02:04.668Z,74.67
2023-04-06T04:04:31.395Z,74.43
2023-04-06T04:06:58.522Z,75.05
2023-04-06T04:09:26.333Z,74.75
2023-04-06T04:11:53.925Z,74.76
2023-04-06T04:14:21.600Z,74.14
2023-04-06T04:16:48.352Z,74.48
2023-04-06T04:19:15.032Z,73.85
2023-04-06T04:21:46.294Z,73.51
2023-04-06T04:24:16.500Z,73.79
2023-04-06T04:26:43.345Z,73.96
2023-04-06T04:29:10.821Z,73.89
2023-04-06T04:31:38.665Z,73.75
2023-04-06T04:34:12.339Z,73.88
2023-04-06T04:36:39.333Z,73.99
2023-04-06T04:39:09.724Z,73.69
2023-04-06T04:41:41.544Z,74.33
2023-04-06T04:44:10.602Z,74.34
2023-04-06T04:46:37.329Z,74.76
2023-04-06T04:49:05.475Z,74.70
2023-04-06T04:51:33.719Z,74.16
2023-04-06T04:54:16.948Z,74.08
2023-04-06T04:56:43.878Z,74.05
2023-04-06T04:59:24.173Z,74.41
2023-04-06T05:01:57.627Z,74.87
2023-04-06T05:04:33.214Z,75.13
2023-04-06T05:07:11.814Z,74.77
2023-04-06T05:09:40.979Z,74.41
2023-04-06T05:12:08.362Z,74.71
2023-04-06T05:14:42.885Z,74.59
2023-04-06T05:17:14.691Z,75.14
2023-04-06T05:19:41.692Z,75.54
2023-04-06T05:22:09.737Z,75.02
2023-04-06T05:24:41.100Z,75.17
2023-04-06T05:27:08.878Z,75.19
2023-04-06T05:29:35.687Z,75.41
2023-04-06T05:32:03.147Z,75.01
2023-04-06T05:34:30.442Z,74.71
2023-04-06T05:36:58.411Z,74.96
2023-04-06T05:39:26.644Z,75.42
2023-04-06T05:41:54.407Z,75.50
2023-04-06T05:44:31.801Z,75.11
2023-04-06T05:47:07.329Z,74.90
2023-04-06T05:49:35.752Z,75.00
2023-04-06T05:52:02.933Z,74.51
2023-04-06T05:54:30.553Z,74.77
2023-04-06T05:57:03.174Z,74.48
2023-04-06T05:59:32.366Z,75.08
2023-04-06T06:01:59.319Z,75.09
2023-04-06T06:04:26.422Z,74.48
2023-04-06T06:06:54.781Z,74.86
2023-04-06T06:09:27.877Z,74.73
2023-04-06T06:12:15.111Z,75.32
2023-04-06T06:14:42.150Z,74.78
2023-04-06T06:17:09.751Z,74.84
2023-04-06T06:19:37.269Z,74.74
2023-04-06T06:22:07.370Z,74.28
2023-04-06T06:24:37.961Z,74.69
2023-04-06T06:27:05.130Z,74.39
2023-04-06T06:29:33.986Z,74.59
2023-04-06T06:32:01.298Z,74.05
2023-04-06T06:34:28.309Z,73.15
2023-04-06T06:36:57.710Z,73.24
2023-04-06T06:39:24.754Z,72.19
2023-04-06T06:41:51.620Z,71.58
2023-04-06T06:44:22.873Z,72.42
2023-04-06T06:46:50.754Z,72.00
2023-04-06T06:49:19.490Z,71.81
2023-04-06T06:51:47.494Z,71.38
2023-04-06T06:54:14.232Z,70.74
2023-04-06T06:56:40.956Z,71.02
2023-04-06T06:59:07.683Z,70.70
2023-04-06T07:01:36.157Z,70.93
2023-04-06T07:04:03.038Z,70.93
2023-04-06T07:06:29.960Z,69.90
2023-04-06T07:08:56.745Z,69.39
2023-04-06T07:11:24.259Z,70.37
2023-04-06T07:13:51.105Z,69.28
2023-04-06T07:16:18.136Z,70.58
2023-04-06T07:18:44.958Z,70.04
2023-04-06T07:21:11.817Z,71.07
2023-04-06T07:23:39.087Z,71.35
2023-04-06T07:26:07.122Z,71.53
2023-04-06T07:28:33.921Z,71.20
2023-04-06T07:31:02.066Z,71.50
2023-04-06T07:33:30.958Z,71.21
2023-04-06T07:35:59.497Z,71.62
2023-04-06T07:38:26.494Z,72.01
2023-04-06T07:40:53.675Z,71.12
2023-04-06T07:43:20.421Z,71.96
2023-04-06T07:45:47.303Z,71.91
2023-04-06T07:48:17.192Z,71.57
2023-04-06T07:50:44.646Z,72.23
2023-04-06T07:53:11.444Z,72.48
2023-04-06T07:55:39.216Z,71.94
2023-04-06T07:58:06.064Z,73.75
2023-04-06T08:00:32.862Z,72.44
2023-04-06T08:02:59.693Z,72.16
2023-04-06T08:05:26.810Z,71.71
2023-04-06T08:07:53.712Z,70.64
2023-04-06T08:10:20.621Z,70.43
2023-04-06T08:12:47.302Z,71.78
2023-04-06T08:15:14.207Z,73.53
2023-04-06T08:17:40.906Z,75.75
2023-04-06T08:20:07.945Z,78.59
2023-04-06T08:22:34.730Z,81.34
2023-04-06T08:25:01.459Z,84.06
2023-04-06T08:27:28.211Z,85.23
2023-04-06T08:29:54.928Z,86.82
2023-04-06T08:32:21.664Z,87.76
2023-04-06T08:34:48.425Z,90.00
2023-04-06T08:37:15.323Z,92.05
2023-04-06T08:39:42.030Z,93.39
2023-04-06T08:42:17.614Z,96.19
2023-04-06T08:44:45.386Z,96.33
2023-04-06T08:47:12.445Z,96.98
2023-04-06T08:49:42.127Z,98.23
2023-04-06T08:52:09.247Z,98.25
2023-04-06T08:54:35.996Z,98.39
2023-04-06T08:57:04.274Z,99.31
2023-04-06T08:59:32.250Z,100.00
2023-04-06T09:02:01.499Z,100.00
2023-04-06T09:04:28.506Z,100.00
2023-04-06T09:06:55.412Z,100.00
2023-04-06T09:09:24.677Z,100.00
2023-04-06T09:11:53.062Z,100.00
2023-04-06T09:14:39.905Z,100.00
2023-04-06T09:17:07.260Z,100.00
2023-04-06T10:16:41.810Z,100.00
2023-04-06T10:19:22.311Z,100.00
2023-04-06T10:21:54.575Z,100.00
2023-04-06T10:24:21.417Z,100.00
2023-04-06T10:27:04.595Z,100.00
2023-04-06T10:29:52.167Z,100.00
2023-04-06T10:32:18.877Z,100.00
2023-04-06T10:34:45.634Z,100.00
2023-04-06T10:37:17.345Z,100.00
2023-04-06T10:39:59.372Z,100.00
2023-04-06T10:42:26.916Z,100.00
2023-04-06T10:44:53.738Z,100.00
2023-04-06T10:47:20.521Z,100.00
2023-04-06T10:49:47.363Z,100.00
2023-04-06T10:52:14.246Z,100.00
2023-04-06T10:54:45.324Z,100.00
2023-04-06T10:57:13.546Z,100.00
2023-04-06T10:59:44.449Z,100.00
2023-04-06T11:02:21.052Z,100.00
2023-04-06T11:04:58.673Z,100.00
2023-04-06T11:07:30.584Z,100.00
2023-04-06T11:10:13.434Z,100.00
2023-04-06T11:12:43.924Z,100.00
2023-04-06T11:15:11.072Z,100.00
2023-04-06T11:17:38.327Z,100.00
2023-04-06T11:20:10.797Z,100.00
2023-04-06T11:22:37.508Z,100.00
2023-04-06T11:27:35.975Z,100.00
2023-04-06T11:30:03.106Z,100.00
2023-04-06T11:32:30.567Z,100.00
2023-04-06T11:34:59.164Z,100.00
2023-04-06T11:37:28.508Z,100.00
2023-04-06T11:39:56.350Z,100.00
2023-04-06T11:42:27.792Z,100.00
2023-04-06T11:44:56.135Z,100.00
2023-04-06T11:47:29.669Z,100.00
2023-04-06T11:49:56.821Z,100.00
2023-04-06T11:52:25.293Z,100.00
2023-04-06T11:54:53.874Z,100.00
2023-04-06T11:57:22.546Z,100.00
2023-04-06T11:59:49.316Z,100.00
2023-04-06T12:02:16.330Z,100.00
2023-04-06T12:04:43.157Z,100.00
2023-04-06T12:07:09.979Z,100.00
2023-04-06T12:09:37.864Z,100.00
2023-04-06T12:12:04.651Z,100.00
2023-04-06T12:14:31.839Z,100.00
2023-04-06T12:16:59.555Z,100.00
2023-04-06T12:19:27.022Z,100.00
2023-04-06T12:21:55.573Z,100.00
2023-04-06T12:24:22.550Z,100.00
2023-04-06T12:26:51.662Z,100.00
2023-04-06T12:29:21.327Z,100.00
2023-04-06T12:31:48.107Z,100.00
2023-04-06T12:34:14.890Z,100.00
2023-04-06T12:36:41.698Z,100.00
2023-04-06T12:39:08.441Z,100.00
2023-04-06T12:41:35.539Z,100.00
2023-04-06T12:44:02.995Z,100.00
2023-04-06T12:46:33.623Z,100.00
2023-04-06T12:49:00.480Z,100.00
2023-04-06T12:51:30.428Z,100.00
2023-04-06T12:53:57.270Z,100.00
2023-04-06T12:56:24.197Z,100.00
2023-04-06T12:58:54.121Z,100.00
2023-04-06T13:01:21.339Z,100.00
2023-04-06T13:03:48.189Z,100.00
2023-04-06T13:06:16.281Z,100.00
2023-04-06T13:08:43.703Z,100.00
2023-04-06T13:11:10.641Z,100.00
2023-04-06T13:13:38.178Z,100.00
2023-04-06T13:16:08.139Z,100.00
2023-04-06T13:18:36.450Z,100.00
2023-04-06T13:21:03.490Z,100.00
2023-04-06T13:23:30.343Z,100.00
2023-04-06T13:26:05.481Z,100.00
2023-04-06T13:28:33.461Z,100.00
2023-04-06T13:31:01.421Z,100.00
2023-04-06T13:33:29.355Z,100.00
2023-04-06T13:35:56.056Z,100.00
2023-04-06T13:38:25.008Z,100.00
2023-04-06T13:40:52.720Z,100.00
2023-04-06T13:43:21.262Z,100.00
2023-04-06T13:45:53.372Z,100.00
2023-04-06T13:48:20.341Z,100.00
2023-04-06T13:50:47.318Z,100.00
2023-04-06T13:53:14.476Z,100.00
2023-04-06T13:55:41.829Z,100.00
2023-04-06T13:58:08.553Z,100.00
2023-04-06T14:00:35.882Z,100.00
2023-04-06T14:03:02.701Z,100.00
2023-04-06T14:05:34.012Z,100.00
2023-04-06T14:08:00.994Z,100.00
2023-04-06T14:10:28.952Z,100.00
2023-04-06T14:12:56.794Z,100.00
2023-04-06T14:15:25.061Z,100.00
2023-04-06T14:17:52.554Z,100.00
2023-04-06T14:20:20.114Z,100.00
2023-04-06T14:22:47.603Z,100.00
2023-04-06T14:25:14.720Z,100.00
2023-04-06T14:27:41.502Z,100.00
2023-04-06T14:30:09.256Z,100.00
2023-04-06T14:32:37.621Z,100.00
2023-04-06T14:35:08.195Z,100.00
2023-04-06T14:37:35.348Z,100.00
2023-04-06T14:40:02.309Z,100.00
2023-04-06T14:42:28.958Z,100.00
2023-04-06T14:44:55.714Z,100.00
2023-04-06T14:47:22.801Z,100.00
2023-04-06T14:49:53.482Z,100.00
2023-04-06T14:52:20.571Z,100.00
2023-04-06T14:54:47.338Z,100.00
2023-04-06T14:57:14.217Z,100.00
2023-04-06T14:59:40.981Z,100.00
2023-04-06T15:02:08.221Z,100.00
2023-04-06T15:04:36.508Z,100.00
2023-04-06T15:07:03.316Z,100.00
2023-04-06T15:09:30.347Z,100.00
2023-04-06T15:11:57.541Z,100.00
2023-04-06T15:14:24.224Z,100.00
2023-04-06T15:16:50.940Z,100.00
2023-04-06T15:19:17.653Z,100.00
2023-04-06T15:21:44.370Z,100.00
2023-04-06T15:24:11.234Z,100.00
2023-04-06T15:26:37.967Z,100.00
2023-04-06T15:29:05.156Z,100.00
2023-04-06T15:31:37.663Z,100.00
2023-04-06T15:34:06.493Z,100.00
2023-04-06T15:36:33.968Z,100.00
2023-04-06T15:39:01.039Z,100.00
2023-04-06T15:41:28.488Z,100.00
2023-04-06T15:43:55.786Z,100.00
2023-04-06T15:46:24.266Z,100.00
2023-04-06T15:48:51.080Z,100.00
2023-04-06T15:51:17.989Z,100.00
2023-04-06T15:53:45.505Z,100.00
2023-04-06T15:56:14.416Z,100.00
2023-04-06T15:58:42.138Z,100.00
2023-04-06T16:01:19.296Z,100.00
2023-04-06T16:03:46.645Z,100.00
2023-04-06T16:06:13.463Z,100.00
2023-04-06T16:08:41.052Z,100.00
2023-04-06T16:11:08.062Z,100.00
2023-04-06T16:13:35.641Z,100.00
2023-04-06T16:16:04.062Z,100.00
2023-04-06T16:18:32.461Z,100.00
2023-04-06T16:21:00.369Z,100.00
2023-04-06T16:23:27.339Z,100.00
2023-04-06T16:25:57.899Z,100.00
2023-04-06T16:28:25.517Z,100.00
2023-04-06T16:30:53.096Z,100.00
2023-04-06T16:33:19.883Z,100.00
2023-04-06T16:35:47.175Z,100.00
2023-04-06T16:38:14.977Z,100.00
2023-04-06T16:40:41.959Z,100.00
2023-04-06T16:43:09.902Z,100.00
2023-04-06T16:45:37.011Z,100.00
2023-04-06T16:48:03.872Z,100.00
2023-04-06T16:50:30.859Z,100.00
2023-04-06T16:52:57.723Z,100.00
2023-04-06T16:55:24.405Z,100.00
2023-04-06T16:57:55.370Z,100.00
2023-04-06T17:00:22.350Z,100.00
2023-04-06T17:02:49.316Z,100.00
2023-04-06T17:05:18.173Z,100.00
2023-04-06T17:07:48.918Z,100.00
2023-04-06T17:10:17.595Z,100.00
2023-04-06T17:12:46.752Z,100.00
2023-04-06T17:15:14.390Z,100.00
2023-04-06T17:17:44.737Z,100.00
2023-04-06T17:20:11.500Z,100.00
2023-04-06T17:22:38.221Z,100.00
2023-04-06T17:25:08.314Z,100.00
2023-04-06T17:27:35.475Z,100.00
2023-04-06T17:30:06.428Z,100.00
2023-04-06T17:32:34.346Z,100.00
2023-04-06T17:35:01.419Z,100.00
2023-04-06T17:37:28.202Z,100.00
2023-04-06T17:39:55.386Z,100.00
2023-04-06T17:44:53.759Z,100.00
2023-04-06T17:47:20.724Z,100.00
2023-04-06T17:49:47.743Z,100.00
2023-04-06T17:52:14.428Z,100.00
2023-04-06T17:54:41.326Z,100.00
2023-04-06T17:57:08.616Z,100.00
2023-04-06T17:59:35.364Z,100.00
2023-04-06T18:02:04.176Z,100.00
2023-04-06T18:04:31.348Z,100.00
2023-04-06T18:06:58.175Z,100.00
2023-04-06T18:11:57.211Z,100.00
2023-04-06T18:14:24.278Z,100.00
2023-04-06T18:16:50.989Z,100.00
2023-04-06T18:19:17.689Z,100.00
2023-04-06T18:21:44.366Z,100.00
2023-04-06T18:24:15.150Z,100.00
2023-04-06T18:26:49.686Z,100.00
2023-04-06T18:29:16.558Z,100.00
2023-04-06T18:31:44.782Z,100.00
2023-04-06T18:34:11.511Z,100.00
2023-04-06T18:36:38.181Z,100.00
2023-04-06T18:39:05.124Z,100.00
2023-04-06T18:41:31.929Z,100.00
2023-04-06T18:43:58.615Z,100.00
2023-04-06T18:46:25.429Z,100.00
2023-04-06T18:48:52.140Z,100.00
2023-04-06T18:51:18.829Z,100.00
2023-04-06T18:53:45.558Z,100.00
2023-04-06T18:56:19.568Z,100.00
2023-04-06T18:58:49.047Z,100.00
2023-04-06T19:01:28.090Z,100.00
2023-04-06T19:03:56.813Z,100.00
2023-04-06T19:06:24.698Z,100.00
2023-04-06T19:08:51.402Z,100.00
2023-04-06T19:11:18.141Z,100.00
2023-04-06T19:13:49.983Z,100.00
2023-04-06T19:16:17.760Z,100.00
2023-04-06T19:18:45.671Z,100.00
2023-04-06T19:21:20.576Z,100.00
2023-04-06T19:23:52.251Z,100.00
2023-04-06T19:26:20.506Z,100.00
2023-04-06T19:28:47.648Z,100.00
2023-04-06T19:31:17.041Z,100.00
2023-04-06T19:33:45.412Z,100.00
2023-04-06T19:36:12.712Z,100.00
2023-04-06T19:38:39.895Z,100.00
2023-04-06T19:41:06.628Z,100.00
2023-04-06T19:43:33.595Z,100.00
2023-04-06T19:46:00.479Z,100.00
2023-04-06T19:48:27.292Z,100.00
2023-04-06T19:50:54.901Z,100.00
2023-04-06T19:53:22.512Z,100.00
2023-04-06T19:55:50.062Z,100.00
2023-04-06T19:58:16.848Z,100.00
2023-04-06T20:00:43.642Z,100.00
2023-04-06T20:03:10.681Z,100.00
2023-04-06T20:05:37.572Z,100.00
2023-04-06T20:08:04.373Z,100.00
2023-04-06T20:10:31.181Z,100.00
2023-04-06T20:13:00.519Z,100.00
2023-04-06T20:15:27.510Z,100.00
2023-04-06T20:17:54.189Z,100.00
2023-04-06T20:20:21.223Z,100.00
2023-04-06T20:22:50.157Z,100.00
2023-04-06T20:25:18.439Z,100.00
2023-04-06T20:27:48.416Z,100.00
2023-04-06T20:30:16.727Z,100.00
2023-04-06T20:32:43.867Z,100.00
2023-04-06T20:35:11.130Z,100.00
2023-04-06T20:37:37.991Z,100.00
2023-04-06T20:40:05.444Z,100.00
2023-04-06T20:42:32.363Z,100.00
2023-04-06T20:44:59.509Z,100.00
2023-04-06T20:47:27.259Z,100.00
2023-04-06T20:49:54.066Z,100.00
2023-04-06T20:52:21.005Z,100.00
2023-04-06T20:54:48.525Z,100.00
2023-04-06T20:57:15.476Z,100.00
2023-04-06T20:59:42.644Z,100.00
2023-04-06T21:02:09.516Z,100.00
2023-04-06T21:04:37.089Z,100.00
2023-04-06T21:07:05.581Z,100.00
2023-04-06T21:09:37.726Z,100.00
2023-04-06T21:12:05.926Z,100.00
2023-04-06T21:14:33.145Z,100.00
2023-04-06T21:17:00.712Z,100.00
2023-04-06T21:19:30.385Z,100.00
2023-04-06T21:21:57.192Z,100.00
2023-04-06T21:24:23.848Z,100.00
2023-04-06T21:26:50.667Z,100.00
2023-04-06T21:29:17.477Z,100.00
2023-04-06T21:31:44.221Z,100.00
2023-04-06T21:34:11.828Z,100.00
2023-04-06T21:36:39.058Z,100.00
2023-04-06T21:39:06.048Z,100.00
2023-04-06T21:41:33.413Z,100.00
2023-04-06T21:44:00.450Z,100.00
2023-04-06T21:46:27.260Z,100.00
2023-04-06T21:48:54.015Z,100.00
2023-04-06T21:51:22.577Z,100.00
2023-04-06T21:53:50.300Z,100.00
2023-04-06T21:56:22.239Z,100.00
2023-04-06T21:58:49.958Z,100.00
2023-04-06T22:01:17.701Z,100.00
2023-04-06T22:03:45.308Z,100.00
2023-04-06T22:06:12.400Z,100.00
2023-04-06T22:08:39.184Z,100.00
2023-04-06T22:11:11.269Z,100.00
2023-04-06T22:13:38.509Z,100.00
2023-04-06T22:16:06.592Z,100.00
2023-04-06T22:18:34.129Z,100.00
2023-04-06T22:21:03.474Z,100.00
2023-04-06T22:23:32.220Z,100.00
2023-04-06T22:25:58.884Z,100.00
2023-04-06T22:28:26.408Z,100.00
2023-04-06T22:30:53.300Z,100.00
2023-04-06T22:33:20.104Z,100.00
2023-04-06T22:35:46.960Z,100.00
2023-04-06T22:38:13.642Z,100.00
2023-04-06T22:40:40.415Z,100.00
2023-04-06T22:43:07.203Z,100.00
2023-04-06T22:45:33.862Z,100.00
2023-04-06T22:48:00.613Z,100.00
2023-04-06T22:50:27.653Z,100.00
2023-04-06T22:52:54.524Z,100.00
2023-04-06T22:55:21.328Z,100.00
2023-04-06T22:57:48.109Z,100.00
2023-04-06T23:00:15.176Z,100.00
2023-04-06T23:02:41.962Z,100.00
2023-04-06T23:05:09.163Z,100.00
2023-04-06T23:07:36.105Z,100.00
2023-04-06T23:10:03.348Z,100.00
2023-04-06T23:12:30.371Z,100.00
2023-04-06T23:14:57.097Z,100.00
2023-04-06T23:17:24.080Z,100.00
2023-04-06T23:19:51.462Z,100.00
2023-04-06T23:22:18.220Z,100.00
2023-04-06T23:24:44.952Z,100.00
2023-04-06T23:27:11.658Z,100.00
2023-04-06T23:29:38.403Z,100.00
2023-04-06T23:32:05.531Z,100.00
2023-04-06T23:34:32.334Z,100.00
2023-04-06T23:37:02.837Z,100.00
2023-04-06T23:39:29.756Z,100.00
2023-04-06T23:41:57.799Z,100.00
2023-04-06T23:44:24.890Z,100.00
2023-04-06T23:46:51.815Z,100.00
2023-04-06T23:49:18.675Z,100.00
2023-04-06T23:51:45.373Z,100.00
2023-04-06T23:54:12.126Z,100.00
2023-04-06T23:56:38.842Z,100.00
2023-04-06T23:59:05.531Z,100.00
